KGCN/GCN METAR and TAF weather

Enter ICAO airport designator
Station Type Date Time Source
KGCN METAR 2019/12/05 23:12 UTC NOAA

KGCN 052312Z 25004KT 10SM SCT020 04/01 A3021 RMK AO2 T00440006


Station Type Date Time Source
KGCN Decoded METAR 2019/12/05 23:12 UTC NOAA

GRAND CANYON NATL PARK AIRPORT , AZ, United States (KGCN) 35-57N 112-09W 2016M
Dec 05, 2019 - 06:12 PM EST / 2019.12.05 2312 UTC
Wind: from the WSW (250 degrees) at 5 MPH (4 KT):0
Visibility: 10 mile(s):0
Sky conditions: partly cloudy
Temperature: 39.9 F (4.4 C)
Dew Point: 33.1 F (0.6 C)
Relative Humidity: 76%
Pressure (altimeter): 30.21 in. Hg (1023 hPa)
ob: KGCN 052312Z 25004KT 10SM SCT020 04/01 A3021 RMK AO2 T00440006
cycle: 23

Station Type Date Time Source
KGCN TAF 2019/12/05 18:36 UTC NOAA

TAF KGCN 051732Z 0518/0618 22010KT P6SM VCFG SCT035
TEMPO 0518/0519 2SM BR VV002

Example: see airport list